Doris Moran — WRU2125 — position and weather

sailwx.info

Track history (hours):
 
Tides and Currents Weather Stations Pressure Air Temp Water Temp Dewpoint Dewpoint Depression Visibility Wind Speed Wind Dir Waves Ship Positions

Doris Moran

Owner: MORAN TOWING CORPORATION, New Canaan, CT. More information available from US FCC via Universal Licensing System and Coast Guard Vessel Documentation Center.

Last reported at 2015-Jan-27 22:34 UTC. Time now 2015-Jan-27 23:05 UTC.
Position N 40°38' W 074°08'.

Length 36 m; draft 5.3 m.

Type: Other ship. MMSI: 366939790.

Date/timePositionNaut miles runAvg speedWind from/ knotsBaromVisibWave heightAir tempDewpointWater temp
2015-Jan-27 22:34N 40°38' W 074°08'0 0.0
2015-Jan-27 21:27N 40°38' W 074°08'0 0.0
2015-Jan-27 20:32N 40°38' W 074°08'0 0.0
2015-Jan-27 19:30N 40°38' W 074°08'0 0.0
2015-Jan-27 18:33N 40°38' W 074°08'0 0.0
2015-Jan-27 17:19N 40°38' W 074°08'0 0.0
2015-Jan-27 16:21N 40°38' W 074°08'0 0.0
2015-Jan-27 15:33N 40°38' W 074°08'0 0.0
2015-Jan-27 14:28N 40°38' W 074°08'0 0.0
2015-Jan-27 13:33N 40°38' W 074°08'0 0.0
2015-Jan-27 12:33N 40°38' W 074°08'0 0.0
2015-Jan-27 11:33N 40°38' W 074°08'0 0.0
2015-Jan-27 10:34N 40°38' W 074°08'0 0.0
2015-Jan-27 09:34N 40°38' W 074°08'0 0.0
2015-Jan-27 08:33N 40°38' W 074°08'0 0.0
2015-Jan-27 07:33N 40°38' W 074°08'0 0.0
2015-Jan-27 06:33N 40°38' W 074°08'0 0.0
2015-Jan-27 05:33N 40°38' W 074°08'0 0.0
2015-Jan-27 04:33N 40°38' W 074°08'0 0.0
2015-Jan-27 03:34N 40°38' W 074°08'0 0.1
2015-Jan-27 02:34N 40°38' W 074°08'4 4.0
2015-Jan-27 01:34N 40°40' W 074°03'0 0.1
2015-Jan-27 00:34N 40°39' W 074°03'0 0.0
2015-Jan-26 23:34N 40°40' W 074°03'0 0.0
2015-Jan-26 22:34N 40°40' W 074°03'0 0.0
2015-Jan-26 21:34N 40°40' W 074°03'0 0.0
2015-Jan-26 20:34N 40°40' W 074°03'3 3.0
2015-Jan-26 19:33N 40°39' W 074°07'2 1.5
2015-Jan-26 18:23N 40°39' W 074°09'2 1.9
2015-Jan-26 17:33N 40°41' W 074°09'3 2.8
2015-Jan-26 16:34N 40°38' W 074°08'0 0.0
2015-Jan-26 15:33N 40°38' W 074°08'0 0.0
2015-Jan-26 14:34N 40°38' W 074°08'0 0.0
2015-Jan-26 13:33N 40°38' W 074°08'0 0.0
2015-Jan-26 12:34N 40°38' W 074°08'0 0.0
2015-Jan-26 11:34N 40°38' W 074°08'0 0.0
2015-Jan-26 10:33N 40°38' W 074°08'0 0.0
2015-Jan-26 09:34N 40°38' W 074°08'0 0.0
2015-Jan-26 08:34N 40°38' W 074°08'0 0.0
2015-Jan-26 07:34N 40°38' W 074°08'0 0.0
2015-Jan-26 06:33N 40°38' W 074°08'0 0.0
2015-Jan-26 02:07N 40°38' W 074°08'0 0.0
2015-Jan-26 01:25N 40°38' W 074°08'0 0.0
2015-Jan-26 00:30N 40°38' W 074°08'1 1.1
2015-Jan-25 23:34N 40°39' W 074°07'0 0.0
2015-Jan-25 22:33N 40°39' W 074°07'0 0.0
2015-Jan-25 21:31N 40°39' W 074°07'0 0.0
2015-Jan-25 20:32N 40°39' W 074°07'3 2.6
2015-Jan-25 19:33N 40°39' W 074°10'0 0.0
2015-Jan-25 18:32N 40°39' W 074°10'0 0.0
2015-Jan-25 17:33N 40°39' W 074°10'2 0.8
2015-Jan-25 15:32N 40°38' W 074°08'0 0.0
2015-Jan-25 14:17N 40°38' W 074°08'0 0.0
2015-Jan-25 12:22N 40°38' W 074°08'4 4.6
2015-Jan-25 11:33N 40°38' W 074°03'3 3.0
2015-Jan-25 10:33N 40°39' W 074°07'1 0.9
2015-Jan-25 09:31N 40°38' W 074°08'0 0.0
2015-Jan-25 08:33N 40°38' W 074°08'0 0.0
2015-Jan-25 07:33N 40°38' W 074°08'0 0.0
2015-Jan-25 06:33N 40°38' W 074°08'3 2.7
2015-Jan-25 05:33N 40°41' W 074°09'3 2.7
2015-Jan-25 04:33N 40°39' W 074°07'0 0.2
2015-Jan-25 02:14N 40°38' W 074°08'0 0.0
2015-Jan-25 01:32N 40°38' W 074°08'2 1.7
2015-Jan-25 00:33N 40°39' W 074°06'2 2.1
2015-Jan-24 23:33N 40°38' W 074°03'4 3.6
2015-Jan-24 22:33N 40°38' W 074°08'6 6.1
2015-Jan-24 21:33N 40°41' W 074°01'7 6.8
2015-Jan-24 20:33N 40°38' W 074°09'3 3.3
2015-Jan-24 19:33N 40°42' W 074°09'3 3.3
2015-Jan-24 18:32N 40°38' W 074°08'0 0.0
2015-Jan-24 17:33N 40°38' W 074°08'0 0.0
2015-Jan-24 16:16N 40°38' W 074°08'0 0.0
2015-Jan-24 15:07N 40°38' W 074°08'0 0.0
2015-Jan-24 14:32N 40°38' W 074°08'0 0.0
2015-Jan-24 13:33N 40°38' W 074°08'0 0.0
2015-Jan-24 12:31N 40°38' W 074°08'0 0.0
2015-Jan-24 11:33N 40°38' W 074°08'0 0.0
2015-Jan-24 10:33N 40°38' W 074°08'0 0.0
2015-Jan-24 09:33N 40°38' W 074°08'0 0.0
2015-Jan-24 08:33N 40°38' W 074°08'0 0.0
2015-Jan-24 07:33N 40°38' W 074°08'0 0.0
2015-Jan-24 06:14N 40°38' W 074°08'0 0.0
2015-Jan-24 05:33N 40°38' W 074°08'0 0.0
2015-Jan-24 04:33N 40°38' W 074°08'0 0.0
2015-Jan-24 03:33N 40°38' W 074°08'0 0.0
2015-Jan-24 02:31N 40°38' W 074°08'0 0.0
2015-Jan-24 01:32N 40°38' W 074°08'0 0.0
2015-Jan-24 00:33N 40°38' W 074°08'0 0.0
2015-Jan-23 23:33N 40°38' W 074°08'0 0.0
2015-Jan-23 22:32N 40°38' W 074°08'0 0.0
2015-Jan-23 21:33N 40°38' W 074°08'0 0.0
2015-Jan-23 20:33N 40°38' W 074°08'0 0.0
2015-Jan-23 19:31N 40°38' W 074°08'0 0.0
2015-Jan-23 18:23N 40°38' W 074°08'0 0.0
2015-Jan-23 17:08N 40°38' W 074°08'0 0.0
2015-Jan-23 16:31N 40°38' W 074°08'0 0.0
2015-Jan-23 15:30N 40°38' W 074°08'1 1.5
2015-Jan-23 14:33N 40°39' W 074°06'2 2.3
2015-Jan-23 13:33N 40°40' W 074°09'0 0.1
2015-Jan-23 12:33N 40°40' W 074°09'0 0.1
2015-Jan-23 11:32N 40°40' W 074°09'1 0.6
2015-Jan-23 10:33N 40°41' W 074°09'2 1.7
2015-Jan-23 09:13N 40°39' W 074°07'1 1.4
2015-Jan-23 08:33N 40°39' W 074°06'2 1.9
2015-Jan-23 07:33N 40°40' W 074°04'1 1.3
2015-Jan-23 06:33N 40°40' W 074°05'3 3.3
2015-Jan-23 05:32N 40°42' W 074°09'3 2.6
2015-Jan-23 04:33N 40°39' W 074°09'4 3.9
2015-Jan-23 03:32N 40°39' W 074°03'3 3.3
2015-Jan-23 02:33N 40°41' W 074°00'6 6.3
2015-Jan-23 01:33N 40°38' W 074°08'0 0.0
2015-Jan-23 00:32N 40°38' W 074°08'0 0.0
2015-Jan-22 23:33N 40°38' W 074°08'0 0.0
2015-Jan-22 22:27N 40°38' W 074°08'1 1.0
2015-Jan-22 21:33N 40°39' W 074°07'0 0.2
2015-Jan-22 20:33N 40°39' W 074°06'2 1.6
2015-Jan-22 19:33N 40°39' W 074°04'3 2.6
2015-Jan-22 18:33N 40°38' W 074°08'0 0.0
2015-Jan-22 17:33N 40°38' W 074°08'0 0.0
2015-Jan-22 16:33N 40°38' W 074°08'0 0.0
2015-Jan-22 15:33N 40°38' W 074°08'0 0.1
2015-Jan-22 14:33N 40°38' W 074°08'0 0.0
2015-Jan-22 13:32N 40°38' W 074°08'3 2.6
2015-Jan-22 12:33N 40°41' W 074°09'1 0.9
2015-Jan-22 11:33N 40°40' W 074°09'1 0.3
2015-Jan-22 09:33N 40°39' W 074°09'2 1.8
2015-Jan-22 08:32N 40°41' W 074°09'4 3.8
2015-Jan-22 07:33N 40°39' W 074°06'1010.5
2015-Jan-22 06:33N 40°48' W 073°59'18 0.3
2015-Jan-20 04:09N 41°05' W 073°53'1810.5
2015-Jan-20 02:25N 40°47' W 073°59'910.0
2015-Jan-20 01:29N 40°39' W 074°05'1 1.0
2015-Jan-20 00:34N 40°39' W 074°06'0 0.0
2015-Jan-19 23:33N 40°39' W 074°06'0 0.0
2015-Jan-19 22:33N 40°39' W 074°06'0 0.0
2015-Jan-19 21:33N 40°39' W 074°06'0 0.0
2015-Jan-19 20:33N 40°39' W 074°06'0 0.0
2015-Jan-19 19:33N 40°39' W 074°06'0 0.0
2015-Jan-19 18:33N 40°39' W 074°06'0 0.0
2015-Jan-19 17:33N 40°39' W 074°06'0 0.0
2015-Jan-19 16:33N 40°39' W 074°06'0 0.0
2015-Jan-19 15:33N 40°39' W 074°06'0 0.0
2015-Jan-19 14:33N 40°39' W 074°06'0 0.0
2015-Jan-19 13:33N 40°39' W 074°06'0 0.0
2015-Jan-19 12:33N 40°39' W 074°06'2 1.5
2015-Jan-19 11:33N 40°39' W 074°04'3 3.3
2015-Jan-19 10:32N 40°36' W 074°01'0 0.0
2015-Jan-19 09:33N 40°36' W 074°01'0 0.0
2015-Jan-19 08:33N 40°36' W 074°01'0 0.0
2015-Jan-19 07:33N 40°36' W 074°01'0 0.0
2015-Jan-19 06:33N 40°36' W 074°01'0 0.1
2015-Jan-19 05:21N 40°36' W 074°01'0 0.0
2015-Jan-19 04:09N 40°36' W 074°01'0 0.0
2015-Jan-19 03:21N 40°36' W 074°01'0 0.0
2015-Jan-19 02:15N 40°36' W 074°01'1 1.1
2015-Jan-19 01:32N 40°35' W 074°02'5 3.3
2015-Jan-19 00:10N 40°31' W 073°59'5 4.9
2015-Jan-18 23:11N 40°29' W 073°54'40 6.1
2015-Jan-18 16:33N 39°48' W 073°58'8 7.9
2015-Jan-18 15:33N 39°41' W 074°01'8 7.9
2015-Jan-18 14:33N 39°34' W 074°05'  
Track history (hours):
 
Tides and Currents Weather Stations Pressure Air Temp Water Temp Dewpoint Dewpoint Depression Visibility Wind Speed Wind Dir Waves Ship Positions

Doris Moran

Owner: MORAN TOWING CORPORATION, New Canaan, CT. More information available from US FCC via Universal Licensing System and Coast Guard Vessel Documentation Center.

Last reported at 2015-Jan-27 22:34 UTC. Time now 2015-Jan-27 23:05 UTC.
Position N 40°38' W 074°08'.

Length 36 m; draft 5.3 m.

Type: Other ship. MMSI: 366939790.

Date/timePositionNaut miles runAvg speedWind from/ knotsBaromVisibWave heightAir tempDewpointWater temp
2015-Jan-27 22:34N 40°38' W 074°08'0 0.0
2015-Jan-27 21:27N 40°38' W 074°08'0 0.0
2015-Jan-27 20:32N 40°38' W 074°08'0 0.0
2015-Jan-27 19:30N 40°38' W 074°08'0 0.0
2015-Jan-27 18:33N 40°38' W 074°08'0 0.0
2015-Jan-27 17:19N 40°38' W 074°08'0 0.0
2015-Jan-27 16:21N 40°38' W 074°08'0 0.0
2015-Jan-27 15:33N 40°38' W 074°08'0 0.0
2015-Jan-27 14:28N 40°38' W 074°08'0 0.0
2015-Jan-27 13:33N 40°38' W 074°08'0 0.0
2015-Jan-27 12:33N 40°38' W 074°08'0 0.0
2015-Jan-27 11:33N 40°38' W 074°08'0 0.0
2015-Jan-27 10:34N 40°38' W 074°08'0 0.0
2015-Jan-27 09:34N 40°38' W 074°08'0 0.0
2015-Jan-27 08:33N 40°38' W 074°08'0 0.0
2015-Jan-27 07:33N 40°38' W 074°08'0 0.0
2015-Jan-27 06:33N 40°38' W 074°08'0 0.0
2015-Jan-27 05:33N 40°38' W 074°08'0 0.0
2015-Jan-27 04:33N 40°38' W 074°08'0 0.0
2015-Jan-27 03:34N 40°38' W 074°08'0 0.1
2015-Jan-27 02:34N 40°38' W 074°08'4 4.0
2015-Jan-27 01:34N 40°40' W 074°03'0 0.1
2015-Jan-27 00:34N 40°39' W 074°03'0 0.0
2015-Jan-26 23:34N 40°40' W 074°03'0 0.0
2015-Jan-26 22:34N 40°40' W 074°03'0 0.0
2015-Jan-26 21:34N 40°40' W 074°03'0 0.0
2015-Jan-26 20:34N 40°40' W 074°03'3 3.0
2015-Jan-26 19:33N 40°39' W 074°07'2 1.5
2015-Jan-26 18:23N 40°39' W 074°09'2 1.9
2015-Jan-26 17:33N 40°41' W 074°09'3 2.8
2015-Jan-26 16:34N 40°38' W 074°08'0 0.0
2015-Jan-26 15:33N 40°38' W 074°08'0 0.0
2015-Jan-26 14:34N 40°38' W 074°08'0 0.0
2015-Jan-26 13:33N 40°38' W 074°08'0 0.0
2015-Jan-26 12:34N 40°38' W 074°08'0 0.0
2015-Jan-26 11:34N 40°38' W 074°08'0 0.0
2015-Jan-26 10:33N 40°38' W 074°08'0 0.0
2015-Jan-26 09:34N 40°38' W 074°08'0 0.0
2015-Jan-26 08:34N 40°38' W 074°08'0 0.0
2015-Jan-26 07:34N 40°38' W 074°08'0 0.0
2015-Jan-26 06:33N 40°38' W 074°08'0 0.0
2015-Jan-26 02:07N 40°38' W 074°08'0 0.0
2015-Jan-26 01:25N 40°38' W 074°08'0 0.0
2015-Jan-26 00:30N 40°38' W 074°08'1 1.1
2015-Jan-25 23:34N 40°39' W 074°07'0 0.0
2015-Jan-25 22:33N 40°39' W 074°07'0 0.0
2015-Jan-25 21:31N 40°39' W 074°07'0 0.0
2015-Jan-25 20:32N 40°39' W 074°07'3 2.6
2015-Jan-25 19:33N 40°39' W 074°10'0 0.0
2015-Jan-25 18:32N 40°39' W 074°10'0 0.0
2015-Jan-25 17:33N 40°39' W 074°10'2 0.8
2015-Jan-25 15:32N 40°38' W 074°08'0 0.0
2015-Jan-25 14:17N 40°38' W 074°08'0 0.0
2015-Jan-25 12:22N 40°38' W 074°08'4 4.6
2015-Jan-25 11:33N 40°38' W 074°03'3 3.0
2015-Jan-25 10:33N 40°39' W 074°07'1 0.9
2015-Jan-25 09:31N 40°38' W 074°08'0 0.0
2015-Jan-25 08:33N 40°38' W 074°08'0 0.0
2015-Jan-25 07:33N 40°38' W 074°08'0 0.0
2015-Jan-25 06:33N 40°38' W 074°08'3 2.7
2015-Jan-25 05:33N 40°41' W 074°09'3 2.7
2015-Jan-25 04:33N 40°39' W 074°07'0 0.2
2015-Jan-25 02:14N 40°38' W 074°08'0 0.0
2015-Jan-25 01:32N 40°38' W 074°08'2 1.7
2015-Jan-25 00:33N 40°39' W 074°06'2 2.1
2015-Jan-24 23:33N 40°38' W 074°03'4 3.6
2015-Jan-24 22:33N 40°38' W 074°08'6 6.1
2015-Jan-24 21:33N 40°41' W 074°01'7 6.8
2015-Jan-24 20:33N 40°38' W 074°09'3 3.3
2015-Jan-24 19:33N 40°42' W 074°09'3 3.3
2015-Jan-24 18:32N 40°38' W 074°08'0 0.0
2015-Jan-24 17:33N 40°38' W 074°08'0 0.0
2015-Jan-24 16:16N 40°38' W 074°08'0 0.0
2015-Jan-24 15:07N 40°38' W 074°08'0 0.0
2015-Jan-24 14:32N 40°38' W 074°08'0 0.0
2015-Jan-24 13:33N 40°38' W 074°08'0 0.0
2015-Jan-24 12:31N 40°38' W 074°08'0 0.0
2015-Jan-24 11:33N 40°38' W 074°08'0 0.0
2015-Jan-24 10:33N 40°38' W 074°08'0 0.0
2015-Jan-24 09:33N 40°38' W 074°08'0 0.0
2015-Jan-24 08:33N 40°38' W 074°08'0 0.0
2015-Jan-24 07:33N 40°38' W 074°08'0 0.0
2015-Jan-24 06:14N 40°38' W 074°08'0 0.0
2015-Jan-24 05:33N 40°38' W 074°08'0 0.0
2015-Jan-24 04:33N 40°38' W 074°08'0 0.0
2015-Jan-24 03:33N 40°38' W 074°08'0 0.0
2015-Jan-24 02:31N 40°38' W 074°08'0 0.0
2015-Jan-24 01:32N 40°38' W 074°08'0 0.0
2015-Jan-24 00:33N 40°38' W 074°08'0 0.0
2015-Jan-23 23:33N 40°38' W 074°08'0 0.0
2015-Jan-23 22:32N 40°38' W 074°08'0 0.0
2015-Jan-23 21:33N 40°38' W 074°08'0 0.0
2015-Jan-23 20:33N 40°38' W 074°08'0 0.0
2015-Jan-23 19:31N 40°38' W 074°08'0 0.0
2015-Jan-23 18:23N 40°38' W 074°08'0 0.0
2015-Jan-23 17:08N 40°38' W 074°08'0 0.0
2015-Jan-23 16:31N 40°38' W 074°08'0 0.0
2015-Jan-23 15:30N 40°38' W 074°08'1 1.5
2015-Jan-23 14:33N 40°39' W 074°06'2 2.3
2015-Jan-23 13:33N 40°40' W 074°09'0 0.1
2015-Jan-23 12:33N 40°40' W 074°09'0 0.1
2015-Jan-23 11:32N 40°40' W 074°09'1 0.6
2015-Jan-23 10:33N 40°41' W 074°09'2 1.7
2015-Jan-23 09:13N 40°39' W 074°07'1 1.4
2015-Jan-23 08:33N 40°39' W 074°06'2 1.9
2015-Jan-23 07:33N 40°40' W 074°04'1 1.3
2015-Jan-23 06:33N 40°40' W 074°05'3 3.3
2015-Jan-23 05:32N 40°42' W 074°09'3 2.6
2015-Jan-23 04:33N 40°39' W 074°09'4 3.9
2015-Jan-23 03:32N 40°39' W 074°03'3 3.3
2015-Jan-23 02:33N 40°41' W 074°00'6 6.3
2015-Jan-23 01:33N 40°38' W 074°08'0 0.0
2015-Jan-23 00:32N 40°38' W 074°08'0 0.0
2015-Jan-22 23:33N 40°38' W 074°08'0 0.0
2015-Jan-22 22:27N 40°38' W 074°08'1 1.0
2015-Jan-22 21:33N 40°39' W 074°07'0 0.2
2015-Jan-22 20:33N 40°39' W 074°06'2 1.6
2015-Jan-22 19:33N 40°39' W 074°04'3 2.6
2015-Jan-22 18:33N 40°38' W 074°08'0 0.0
2015-Jan-22 17:33N 40°38' W 074°08'0 0.0
2015-Jan-22 16:33N 40°38' W 074°08'0 0.0
2015-Jan-22 15:33N 40°38' W 074°08'0 0.1
2015-Jan-22 14:33N 40°38' W 074°08'0 0.0
2015-Jan-22 13:32N 40°38' W 074°08'3 2.6
2015-Jan-22 12:33N 40°41' W 074°09'1 0.9
2015-Jan-22 11:33N 40°40' W 074°09'1 0.3
2015-Jan-22 09:33N 40°39' W 074°09'2 1.8
2015-Jan-22 08:32N 40°41' W 074°09'4 3.8
2015-Jan-22 07:33N 40°39' W 074°06'1010.5
2015-Jan-22 06:33N 40°48' W 073°59'18 0.3
2015-Jan-20 04:09N 41°05' W 073°53'1810.5
2015-Jan-20 02:25N 40°47' W 073°59'910.0
2015-Jan-20 01:29N 40°39' W 074°05'1 1.0
2015-Jan-20 00:34N 40°39' W 074°06'0 0.0
2015-Jan-19 23:33N 40°39' W 074°06'0 0.0
2015-Jan-19 22:33N 40°39' W 074°06'0 0.0
2015-Jan-19 21:33N 40°39' W 074°06'0 0.0
2015-Jan-19 20:33N 40°39' W 074°06'0 0.0
2015-Jan-19 19:33N 40°39' W 074°06'0 0.0
2015-Jan-19 18:33N 40°39' W 074°06'0 0.0
2015-Jan-19 17:33N 40°39' W 074°06'0 0.0
2015-Jan-19 16:33N 40°39' W 074°06'0 0.0
2015-Jan-19 15:33N 40°39' W 074°06'0 0.0
2015-Jan-19 14:33N 40°39' W 074°06'0 0.0
2015-Jan-19 13:33N 40°39' W 074°06'0 0.0
2015-Jan-19 12:33N 40°39' W 074°06'2 1.5
2015-Jan-19 11:33N 40°39' W 074°04'3 3.3
2015-Jan-19 10:32N 40°36' W 074°01'0 0.0
2015-Jan-19 09:33N 40°36' W 074°01'0 0.0
2015-Jan-19 08:33N 40°36' W 074°01'0 0.0
2015-Jan-19 07:33N 40°36' W 074°01'0 0.0
2015-Jan-19 06:33N 40°36' W 074°01'0 0.1
2015-Jan-19 05:21N 40°36' W 074°01'0 0.0
2015-Jan-19 04:09N 40°36' W 074°01'0 0.0
2015-Jan-19 03:21N 40°36' W 074°01'0 0.0
2015-Jan-19 02:15N 40°36' W 074°01'1 1.1
2015-Jan-19 01:32N 40°35' W 074°02'5 3.3
2015-Jan-19 00:10N 40°31' W 073°59'5 4.9
2015-Jan-18 23:11N 40°29' W 073°54'40 6.1
2015-Jan-18 16:33N 39°48' W 073°58'8 7.9
2015-Jan-18 15:33N 39°41' W 074°01'8 7.9
2015-Jan-18 14:33N 39°34' W 074°05'  

Dump ship's entire track history